createdAt,value
2017-11-14T00:00:15.266Z,4.7
2017-11-14T00:01:15.602Z,4.73
2017-11-14T00:02:15.296Z,4.68
2017-11-14T00:03:15.636Z,4.84
2017-11-14T00:04:15.653Z,4.82
2017-11-14T00:05:15.337Z,4.92
2017-11-14T00:06:15.673Z,4.9
2017-11-14T00:07:15.709Z,4.9
2017-11-14T00:08:15.396Z,4.77
2017-11-14T00:09:15.724Z,4.73
2017-11-14T00:10:15.736Z,4.68
2017-11-14T00:11:15.767Z,4.66
2017-11-14T00:12:15.761Z,4.7
2017-11-14T00:13:15.774Z,4.62
2017-11-14T00:14:15.467Z,4.58
2017-11-14T00:15:15.484Z,4.59
2017-11-14T00:16:15.496Z,4.71
2017-11-14T00:17:15.836Z,4.68
2017-11-14T00:18:15.577Z,4.56
2017-11-14T00:19:15.537Z,4.49
2017-11-14T00:20:15.555Z,4.45
2017-11-14T00:21:15.889Z,4.62
2017-11-14T00:22:15.908Z,4.73
2017-11-14T00:23:15.920Z,4.58
2017-11-14T00:24:15.940Z,4.63
2017-11-14T00:25:15.621Z,4.7
2017-11-14T00:26:15.643Z,4.66
2017-11-14T00:27:15.651Z,4.63
2017-11-14T00:28:15.992Z,4.45
2017-11-14T00:29:15.680Z,4.55
2017-11-14T00:30:15.835Z,4.44
2017-11-14T00:31:15.385Z,4.37
2017-11-14T00:32:16.060Z,4.35
2017-11-14T00:33:16.126Z,4.42
2017-11-14T00:34:16.082Z,4.5
2017-11-14T00:35:16.089Z,4.59
2017-11-14T00:36:16.132Z,4.49
2017-11-14T00:37:16.145Z,4.5
2017-11-14T00:38:16.126Z,4.5
2017-11-14T00:39:16.139Z,4.48
2017-11-14T00:40:15.838Z,4.49
2017-11-14T00:41:16.179Z,4.42
2017-11-14T00:42:15.859Z,4.45
2017-11-14T00:43:16.207Z,4.45
2017-11-14T00:44:16.226Z,4.49
2017-11-14T00:45:15.905Z,4.31
2017-11-14T00:46:15.917Z,4.37
2017-11-14T00:47:16.257Z,4.45
2017-11-14T00:48:16.317Z,4.49
2017-11-14T00:49:16.295Z,4.5
2017-11-14T00:50:16.299Z,4.56
2017-11-14T00:51:15.994Z,4.63
2017-11-14T00:52:16.014Z,4.62
2017-11-14T00:53:16.342Z,4.55
2017-11-14T00:54:16.032Z,4.6
2017-11-14T00:55:16.378Z,4.62
2017-11-14T00:56:16.385Z,4.63
2017-11-14T00:57:16.402Z,4.5
2017-11-14T00:58:16.417Z,4.6
2017-11-14T00:59:16.429Z,4.56
2017-11-14T01:00:16.442Z,4.62
2017-11-14T01:01:15.806Z,4.71
2017-11-14T01:02:16.485Z,4.6
2017-11-14T01:03:16.632Z,4.63
2017-11-14T01:04:16.176Z,4.59
2017-11-14T01:05:16.185Z,4.66
2017-11-14T01:06:16.200Z,4.67
2017-11-14T01:07:16.548Z,4.73
2017-11-14T01:08:16.552Z,4.67
2017-11-14T01:09:16.580Z,4.7
2017-11-14T01:10:16.260Z,4.82
2017-11-14T01:11:16.595Z,4.78
2017-11-14T01:12:16.290Z,4.78
2017-11-14T01:13:16.308Z,4.84
2017-11-14T01:14:16.323Z,4.77
2017-11-14T01:15:16.330Z,4.78
2017-11-14T01:16:16.344Z,4.75
2017-11-14T01:17:16.687Z,4.66
2017-11-14T01:18:16.371Z,4.7
2017-11-14T01:19:16.713Z,4.63
2017-11-14T01:20:16.454Z,4.73
2017-11-14T01:21:16.423Z,4.68
2017-11-14T01:22:16.435Z,4.75
2017-11-14T01:23:16.449Z,4.71
2017-11-14T01:24:16.458Z,4.71
2017-11-14T01:25:16.798Z,4.66
2017-11-14T01:26:16.816Z,4.67
2017-11-14T01:27:16.841Z,4.74
2017-11-14T01:28:16.515Z,4.74
2017-11-14T01:29:16.862Z,4.74
2017-11-14T01:30:16.875Z,4.74
2017-11-14T01:31:16.889Z,4.75
2017-11-14T01:32:16.577Z,4.67
2017-11-14T01:33:16.913Z,4.6
2017-11-14T01:34:16.923Z,4.63
2017-11-14T01:35:16.665Z,4.58
2017-11-14T01:36:16.955Z,4.73
2017-11-14T01:37:16.973Z,4.71
2017-11-14T01:38:17.004Z,4.71
2017-11-14T01:39:16.674Z,4.71
2017-11-14T01:40:16.686Z,4.55
2017-11-14T01:41:16.699Z,4.62
2017-11-14T01:42:17.042Z,4.49
2017-11-14T01:43:17.054Z,4.6
2017-11-14T01:44:17.072Z,4.49
2017-11-14T01:45:16.758Z,4.5
2017-11-14T01:46:17.101Z,4.55
2017-11-14T01:47:16.788Z,4.6
2017-11-14T01:48:16.480Z,4.58
2017-11-14T01:49:17.137Z,4.59
2017-11-14T01:50:17.154Z,4.62
2017-11-14T01:51:16.522Z,4.48
2017-11-14T01:52:17.230Z,4.52
2017-11-14T01:53:17.197Z,4.62
2017-11-14T01:54:17.213Z,4.58
2017-11-14T01:55:17.225Z,4.56
2017-11-14T01:56:17.238Z,4.62
2017-11-14T01:57:16.928Z,4.49
2017-11-14T01:58:16.941Z,4.48
2017-11-14T01:59:16.956Z,4.52
2017-11-14T02:00:16.972Z,4.55
2017-11-14T02:01:17.313Z,4.56
2017-11-14T02:02:17.324Z,4.52
2017-11-14T02:03:17.012Z,4.59
2017-11-14T02:04:17.355Z,4.49
2017-11-14T02:05:16.717Z,4.49
2017-11-14T02:06:17.057Z,4.62
2017-11-14T02:07:17.444Z,4.49
2017-11-14T02:08:17.086Z,4.58
2017-11-14T02:09:17.424Z,4.59
2017-11-14T02:10:16.787Z,4.52
2017-11-14T02:11:16.806Z,4.55
2017-11-14T02:12:17.140Z,4.49
2017-11-14T02:13:17.481Z,4.5
2017-11-14T02:14:16.843Z,4.48
2017-11-14T02:15:17.510Z,4.45
2017-11-14T02:16:17.519Z,4.48
2017-11-14T02:17:17.207Z,4.45
2017-11-14T02:18:17.548Z,4.53
2017-11-14T02:19:17.249Z,4.5
2017-11-14T02:20:17.577Z,4.45
2017-11-14T02:21:17.593Z,4.56
2017-11-14T02:22:17.283Z,4.5
2017-11-14T02:23:17.622Z,4.44
2017-11-14T02:24:17.315Z,4.35
2017-11-14T02:25:17.329Z,4.49
2017-11-14T02:26:17.664Z,4.35
2017-11-14T02:27:17.689Z,4.42
2017-11-14T02:28:17.368Z,4.35
2017-11-14T02:29:17.712Z,4.41
2017-11-14T02:30:17.402Z,4.52
2017-11-14T02:31:17.755Z,4.41
2017-11-14T02:32:17.435Z,4.41
2017-11-14T02:33:17.766Z,4.49
2017-11-14T02:34:17.785Z,4.42
2017-11-14T02:35:17.808Z,4.38
2017-11-14T02:36:17.807Z,4.42
2017-11-14T02:37:17.493Z,4.42
2017-11-14T02:38:17.831Z,4.35
2017-11-14T02:39:17.529Z,4.31
2017-11-14T02:40:17.887Z,4.37
2017-11-14T02:41:17.548Z,4.42
2017-11-14T02:42:17.566Z,4.35
2017-11-14T02:43:17.905Z,4.35
2017-11-14T02:44:17.916Z,4.34
2017-11-14T02:45:17.929Z,4.3
2017-11-14T02:46:17.949Z,4.2
2017-11-14T02:47:17.960Z,4.17
2017-11-14T02:48:17.660Z,4.32
2017-11-14T02:49:17.984Z,4.31
2017-11-14T02:50:18.004Z,4.28
2017-11-14T02:51:18.014Z,4.19
2017-11-14T02:52:18.030Z,4.19
2017-11-14T02:53:18.046Z,4.08
2017-11-14T02:54:18.060Z,4.1
2017-11-14T02:55:18.066Z,4.1
2017-11-14T02:56:17.773Z,4.13
2017-11-14T02:57:17.771Z,4.19
2017-11-14T02:58:18.128Z,4.17
2017-11-14T02:59:18.129Z,4.24
2017-11-14T03:00:18.151Z,4.22
2017-11-14T03:01:18.160Z,4.22
2017-11-14T03:02:18.166Z,4.3
2017-11-14T03:03:17.856Z,4.31
2017-11-14T03:04:18.192Z,4.13
2017-11-14T03:05:17.881Z,4.22
2017-11-14T03:06:18.234Z,4.19
2017-11-14T03:07:18.239Z,4.19
2017-11-14T03:08:17.926Z,4.16
2017-11-14T03:09:18.280Z,4.14
2017-11-14T03:10:18.287Z,4.16
2017-11-14T03:11:18.343Z,4.19
2017-11-14T03:12:18.323Z,4.2
2017-11-14T03:13:17.996Z,4.24
2017-11-14T03:14:18.332Z,4.16
2017-11-14T03:15:18.354Z,4.12
2017-11-14T03:16:18.365Z,4.16
2017-11-14T03:17:18.375Z,4.05
2017-11-14T03:18:18.073Z,4.05
2017-11-14T03:19:18.405Z,4.17
2017-11-14T03:20:18.422Z,4.12
2017-11-14T03:21:18.106Z,4.17
2017-11-14T03:22:18.468Z,4.2
2017-11-14T03:23:18.463Z,4.19
2017-11-14T03:24:18.151Z,4.28
2017-11-14T03:25:18.490Z,4.22
2017-11-14T03:26:18.233Z,4.12
2017-11-14T03:27:18.515Z,4.12
2017-11-14T03:28:18.533Z,4.05
2017-11-14T03:29:18.541Z,4.05
2017-11-14T03:30:18.567Z,4.01
2017-11-14T03:31:18.585Z,4.06
2017-11-14T03:32:18.609Z,4.01
2017-11-14T03:33:18.603Z,4.04
2017-11-14T03:34:18.292Z,4.13
2017-11-14T03:35:18.312Z,4.17
2017-11-14T03:36:18.646Z,4.16
2017-11-14T03:37:18.660Z,4.01
2017-11-14T03:38:18.546Z,4.05
2017-11-14T03:39:18.681Z,3.99
2017-11-14T03:40:18.373Z,3.99
2017-11-14T03:41:18.388Z,4.02
2017-11-14T03:42:18.077Z,4.04
2017-11-14T03:43:18.413Z,4.02
2017-11-14T03:44:18.783Z,4.01
2017-11-14T03:45:18.784Z,4.04
2017-11-14T03:46:18.784Z,3.98
2017-11-14T03:47:18.795Z,4.01
2017-11-14T03:48:18.813Z,3.98
2017-11-14T03:49:18.959Z,4.04
2017-11-14T03:50:18.839Z,4.01
2017-11-14T03:51:18.526Z,4.04
2017-11-14T03:52:18.865Z,3.94
2017-11-14T03:53:18.886Z,3.98
2017-11-14T03:54:18.574Z,4.02
2017-11-14T03:55:18.911Z,4.05
2017-11-14T03:56:18.602Z,3.96
2017-11-14T03:57:18.288Z,4.05
2017-11-14T03:58:18.964Z,4.04
2017-11-14T03:59:18.691Z,4.01
2017-11-14T04:00:18.650Z,3.99
2017-11-14T04:01:18.669Z,4.04
2017-11-14T04:02:18.353Z,4.06
2017-11-14T04:03:18.698Z,4.04
2017-11-14T04:04:19.038Z,4.05
2017-11-14T04:05:19.044Z,4.01
2017-11-14T04:06:19.060Z,3.95
2017-11-14T04:07:19.072Z,3.96
2017-11-14T04:08:18.761Z,3.88
2017-11-14T04:09:19.103Z,3.76
2017-11-14T04:10:19.112Z,3.81
2017-11-14T04:11:19.158Z,3.76
2017-11-14T04:12:18.819Z,3.84
2017-11-14T04:13:18.838Z,3.8
2017-11-14T04:14:19.169Z,3.91
2017-11-14T04:15:18.862Z,3.87
2017-11-14T04:16:19.195Z,3.95
2017-11-14T04:17:19.230Z,4.05
2017-11-14T04:18:19.225Z,3.98
2017-11-14T04:19:18.914Z,3.92
2017-11-14T04:20:19.256Z,4.02
2017-11-14T04:21:18.618Z,3.94
2017-11-14T04:22:19.284Z,3.96
2017-11-14T04:23:19.299Z,4.01
2017-11-14T04:24:19.005Z,3.99
2017-11-14T04:25:19.317Z,3.87
2017-11-14T04:26:19.342Z,4.04
2017-11-14T04:27:19.023Z,3.94
2017-11-14T04:28:19.043Z,3.94
2017-11-14T04:29:19.376Z,3.91
2017-11-14T04:30:18.751Z,3.81
2017-11-14T04:31:19.083Z,3.86
2017-11-14T04:32:19.414Z,3.81
2017-11-14T04:33:19.114Z,3.78
2017-11-14T04:34:19.449Z,3.68
2017-11-14T04:35:19.457Z,3.66
2017-11-14T04:36:18.821Z,3.55
2017-11-14T04:37:19.484Z,3.58
2017-11-14T04:38:19.178Z,3.59
2017-11-14T04:39:19.184Z,3.6
2017-11-14T04:40:19.524Z,3.65
2017-11-14T04:41:19.219Z,3.66
2017-11-14T04:42:19.559Z,3.76
2017-11-14T04:43:19.240Z,3.76
2017-11-14T04:44:19.582Z,3.69
2017-11-14T04:45:19.266Z,3.66
2017-11-14T04:46:19.603Z,3.69
2017-11-14T04:47:19.297Z,3.65
2017-11-14T04:48:19.628Z,3.73
2017-11-14T04:49:19.322Z,3.74
2017-11-14T04:50:19.716Z,3.78
2017-11-14T04:51:19.674Z,3.78
2017-11-14T04:52:19.691Z,3.74
2017-11-14T04:53:19.713Z,3.76
2017-11-14T04:54:19.390Z,3.74
2017-11-14T04:55:19.732Z,3.8
2017-11-14T04:56:19.743Z,3.68
2017-11-14T04:57:19.769Z,3.68
2017-11-14T04:58:19.763Z,3.76
2017-11-14T04:59:19.132Z,3.76
2017-11-14T05:00:19.795Z,3.7
2017-11-14T05:01:19.806Z,3.76
2017-11-14T05:02:19.173Z,3.77
2017-11-14T05:03:19.513Z,3.59
2017-11-14T05:04:19.849Z,3.62
2017-11-14T05:05:19.264Z,3.56
2017-11-14T05:06:19.877Z,3.5
2017-11-14T05:07:19.561Z,3.34
2017-11-14T05:08:19.897Z,3.36
2017-11-14T05:09:19.923Z,3.21
2017-11-14T05:10:19.613Z,3.25
2017-11-14T05:11:19.619Z,3.19
2017-11-14T05:12:19.953Z,3.08
2017-11-14T05:13:19.966Z,3.05
2017-11-14T05:14:19.654Z,3.01
2017-11-14T05:15:19.689Z,2.98
2017-11-14T05:16:20.009Z,3.11
2017-11-14T05:17:20.023Z,3.14
2017-11-14T05:18:20.045Z,3.19
2017-11-14T05:19:19.730Z,3.21
2017-11-14T05:20:19.462Z,3.25
2017-11-14T05:21:20.086Z,3.21
2017-11-14T05:22:20.089Z,3.26
2017-11-14T05:23:20.104Z,3.25
2017-11-14T05:24:19.787Z,3.21
2017-11-14T05:25:19.804Z,3.29
2017-11-14T05:26:20.141Z,3.31
2017-11-14T05:27:20.158Z,3.36
2017-11-14T05:28:19.517Z,3.47
2017-11-14T05:29:20.200Z,3.45
2017-11-14T05:30:19.871Z,3.47
2017-11-14T05:31:19.895Z,3.4
2017-11-14T05:32:19.896Z,3.37
2017-11-14T05:33:19.911Z,3.37
2017-11-14T05:34:20.246Z,3.36
2017-11-14T05:35:20.258Z,3.36
2017-11-14T05:36:20.296Z,3.34
2017-11-14T05:37:19.957Z,3.34
2017-11-14T05:38:20.299Z,3.26
2017-11-14T05:39:20.312Z,3.16
2017-11-14T05:40:20.330Z,3.19
2017-11-14T05:41:20.386Z,3.28
2017-11-14T05:42:20.036Z,3.32
2017-11-14T05:43:20.363Z,3.31
2017-11-14T05:44:20.055Z,3.22
2017-11-14T05:45:20.391Z,3.26
2017-11-14T05:46:20.097Z,3.32
2017-11-14T05:47:20.089Z,3.21
2017-11-14T05:48:20.425Z,3.25
2017-11-14T05:49:20.116Z,3.25
2017-11-14T05:50:20.467Z,3.31
2017-11-14T05:51:20.480Z,3.34
2017-11-14T05:52:20.486Z,3.37
2017-11-14T05:53:20.504Z,3.32
2017-11-14T05:54:19.861Z,3.4
2017-11-14T05:55:20.200Z,3.36
2017-11-14T05:56:20.698Z,3.41
2017-11-14T05:57:20.242Z,3.5
2017-11-14T05:58:20.567Z,3.4
2017-11-14T05:59:20.574Z,3.37
2017-11-14T06:00:20.591Z,3.25
2017-11-14T06:01:20.599Z,3.22
2017-11-14T06:02:20.291Z,3.16
2017-11-14T06:03:20.297Z,2.98
2017-11-14T06:04:20.640Z,2.82
2017-11-14T06:05:20.664Z,2.6
2017-11-14T06:06:20.370Z,2.54
2017-11-14T06:07:20.677Z,2.61
2017-11-14T06:08:20.714Z,2.72
2017-11-14T06:09:20.721Z,2.51
2017-11-14T06:10:20.395Z,2.53
2017-11-14T06:11:20.785Z,2.43
2017-11-14T06:12:20.425Z,2.65
2017-11-14T06:13:20.118Z,2.54
2017-11-14T06:14:20.771Z,2.54
2017-11-14T06:15:20.455Z,2.57
2017-11-14T06:16:20.474Z,2.65
2017-11-14T06:17:20.494Z,2.68
2017-11-14T06:18:20.176Z,2.67
2017-11-14T06:19:20.516Z,2.69
2017-11-14T06:20:20.541Z,2.6
2017-11-14T06:21:20.860Z,2.62
2017-11-14T06:22:20.885Z,2.71
2017-11-14T06:23:20.885Z,2.82
2017-11-14T06:24:20.904Z,2.65
2017-11-14T06:25:20.920Z,2.68
2017-11-14T06:26:20.614Z,2.56
2017-11-14T06:27:20.661Z,2.62
2017-11-14T06:28:20.949Z,2.62
2017-11-14T06:29:20.962Z,2.65
2017-11-14T06:30:20.989Z,2.75
2017-11-14T06:31:20.665Z,2.83
2017-11-14T06:32:21.003Z,2.9
2017-11-14T06:33:21.016Z,2.89
2017-11-14T06:34:20.703Z,2.93
2017-11-14T06:35:20.723Z,3.01
2017-11-14T06:36:21.067Z,2.92
2017-11-14T06:37:21.067Z,3.03
2017-11-14T06:38:21.078Z,3.05
2017-11-14T06:39:20.768Z,3.04
2017-11-14T06:40:21.104Z,2.92
2017-11-14T06:41:21.133Z,2.82
2017-11-14T06:42:20.809Z,2.68
2017-11-14T06:43:20.822Z,2.79
2017-11-14T06:44:20.832Z,2.72
2017-11-14T06:45:21.181Z,2.83
2017-11-14T06:46:21.184Z,2.95
2017-11-14T06:47:21.194Z,3.04
2017-11-14T06:48:20.887Z,2.83
2017-11-14T06:49:20.901Z,2.79
2017-11-14T06:50:21.234Z,2.61
2017-11-14T06:51:20.926Z,2.49
2017-11-14T06:52:20.953Z,2.54
2017-11-14T06:53:20.951Z,2.53
2017-11-14T06:54:20.964Z,2.65
2017-11-14T06:55:21.300Z,2.65
2017-11-14T06:56:21.317Z,2.79
2017-11-14T06:57:21.329Z,2.82
2017-11-14T06:58:21.019Z,2.92
2017-11-14T06:59:21.359Z,3.03
2017-11-14T07:00:21.371Z,3.04
2017-11-14T07:01:21.400Z,3.22
2017-11-14T07:02:21.394Z,3.07
2017-11-14T07:03:21.093Z,2.89
2017-11-14T07:04:21.100Z,2.82
2017-11-14T07:05:21.438Z,2.83
2017-11-14T07:06:21.453Z,2.77
2017-11-14T07:07:21.464Z,2.71
2017-11-14T07:08:21.150Z,2.6
2017-11-14T07:09:21.161Z,2.49
2017-11-14T07:10:21.500Z,2.68
2017-11-14T07:11:21.190Z,2.77
2017-11-14T07:12:21.211Z,2.61
2017-11-14T07:13:21.541Z,2.67
2017-11-14T07:14:21.230Z,2.69
2017-11-14T07:15:21.294Z,2.83
2017-11-14T07:16:21.578Z,2.92
2017-11-14T07:17:21.597Z,2.86
2017-11-14T07:18:21.604Z,2.86
2017-11-14T07:19:21.305Z,2.85
2017-11-14T07:20:21.309Z,2.93
2017-11-14T07:21:21.329Z,2.98
2017-11-14T07:22:21.671Z,3.1
2017-11-14T07:23:21.364Z,3.21
2017-11-14T07:24:21.376Z,3.18
2017-11-14T07:25:21.698Z,3.14
2017-11-14T07:26:21.728Z,3.22
2017-11-14T07:27:21.722Z,3.1
2017-11-14T07:28:21.755Z,3.21
2017-11-14T07:29:21.770Z,3.26
2017-11-14T07:30:21.962Z,3.25
2017-11-14T07:31:21.463Z,3.32
2017-11-14T07:32:21.792Z,3.31
2017-11-14T07:33:21.480Z,3.21
2017-11-14T07:34:21.816Z,3.16
2017-11-14T07:35:21.842Z,3.18
2017-11-14T07:36:21.849Z,3.22
2017-11-14T07:37:21.863Z,3.23
2017-11-14T07:38:21.876Z,3.31
2017-11-14T07:39:21.882Z,3.36
2017-11-14T07:40:21.920Z,3.47
2017-11-14T07:41:21.601Z,3.5
2017-11-14T07:42:21.599Z,3.55
2017-11-14T07:43:21.615Z,3.65
2017-11-14T07:44:21.634Z,3.65
2017-11-14T07:45:21.648Z,3.53
2017-11-14T07:46:21.658Z,3.51
2017-11-14T07:47:21.669Z,3.4
2017-11-14T07:48:21.686Z,3.47
2017-11-14T07:49:22.021Z,3.5
2017-11-14T07:50:21.386Z,3.59
2017-11-14T07:51:21.725Z,3.62
2017-11-14T07:52:21.421Z,3.74
2017-11-14T07:53:22.075Z,3.77
2017-11-14T07:54:21.766Z,3.88
2017-11-14T07:55:21.783Z,3.8
2017-11-14T07:56:22.120Z,3.78
2017-11-14T07:57:21.483Z,3.81
2017-11-14T07:58:22.148Z,3.76
2017-11-14T07:59:22.160Z,3.83
2017-11-14T08:00:21.529Z,3.87
2017-11-14T08:01:22.184Z,4.01
2017-11-14T08:02:21.874Z,4.17
2017-11-14T08:03:21.565Z,4.3
2017-11-14T08:04:22.243Z,4.45
2017-11-14T08:05:21.929Z,4.5
2017-11-14T08:06:21.932Z,4.59
2017-11-14T08:07:21.951Z,4.66
2017-11-14T08:08:22.292Z,4.7
2017-11-14T08:09:21.654Z,4.84
2017-11-14T08:10:21.990Z,4.96
2017-11-14T08:11:22.335Z,5.07
2017-11-14T08:12:22.343Z,5.11
2017-11-14T08:13:22.033Z,5.12
2017-11-14T08:14:22.052Z,5.21
2017-11-14T08:15:22.063Z,5.12
2017-11-14T08:16:22.409Z,4.9
2017-11-14T08:17:22.085Z,4.96
2017-11-14T08:18:22.431Z,4.75
2017-11-14T08:19:22.118Z,4.75
2017-11-14T08:20:22.458Z,4.87
2017-11-14T08:21:22.474Z,4.89
2017-11-14T08:22:22.495Z,4.92
2017-11-14T08:23:22.504Z,4.97
2017-11-14T08:24:22.193Z,4.96
2017-11-14T08:25:22.562Z,4.93
2017-11-14T08:26:22.223Z,5.1
2017-11-14T08:27:22.559Z,5.14
2017-11-14T08:28:22.258Z,5.12
2017-11-14T08:29:22.594Z,5.02
2017-11-14T08:30:22.604Z,5.11
2017-11-14T08:31:22.295Z,5.11
2017-11-14T08:32:22.658Z,5.1
2017-11-14T08:33:22.664Z,5.29
2017-11-14T08:34:22.341Z,5.39
2017-11-14T08:35:22.356Z,5.35
2017-11-14T08:36:22.367Z,5.44
2017-11-14T08:37:22.708Z,5.46
2017-11-14T08:38:22.407Z,5.56
2017-11-14T08:39:22.416Z,5.66
2017-11-14T08:40:22.433Z,5.69
2017-11-14T08:41:22.765Z,5.83
2017-11-14T08:42:22.469Z,5.93
2017-11-14T08:43:22.483Z,5.87
2017-11-14T08:44:22.824Z,5.97
2017-11-14T08:45:22.827Z,6.16
2017-11-14T08:46:22.843Z,6.12
2017-11-14T08:47:22.532Z,5.94
2017-11-14T08:48:22.878Z,6.01
2017-11-14T08:49:22.891Z,6.07
2017-11-14T08:50:22.958Z,6.09
2017-11-14T08:51:22.935Z,6.27
2017-11-14T08:52:22.939Z,6.31
2017-11-14T08:53:22.953Z,6.41
2017-11-14T08:54:22.644Z,6.42
2017-11-14T08:55:22.338Z,6.45
2017-11-14T08:56:22.675Z,6.45
2017-11-14T08:57:22.689Z,6.46
2017-11-14T08:58:23.046Z,6.49
2017-11-14T08:59:23.047Z,6.52
2017-11-14T09:00:22.750Z,6.59
2017-11-14T09:01:23.088Z,6.56
2017-11-14T09:02:22.776Z,6.51
2017-11-14T09:03:22.807Z,6.7
2017-11-14T09:04:23.136Z,6.78
2017-11-14T09:05:23.192Z,6.72
2017-11-14T09:06:23.165Z,6.79
2017-11-14T09:07:23.171Z,6.81
2017-11-14T09:08:22.868Z,6.88
2017-11-14T09:09:23.408Z,6.88
2017-11-14T09:10:23.227Z,7.02
2017-11-14T09:11:23.239Z,7.05
2017-11-14T09:12:22.931Z,6.96
2017-11-14T09:13:23.281Z,7.02
2017-11-14T09:14:22.966Z,6.88
2017-11-14T09:15:22.977Z,6.82
2017-11-14T09:16:23.321Z,7.07
2017-11-14T09:17:23.010Z,7.1
2017-11-14T09:18:23.024Z,7.05
2017-11-14T09:19:23.042Z,7.11
2017-11-14T09:20:22.735Z,7.21
2017-11-14T09:21:23.069Z,7.23
2017-11-14T09:22:23.413Z,7.17
2017-11-14T09:23:23.432Z,7.14
2017-11-14T09:24:23.470Z,7.1
2017-11-14T09:25:23.460Z,7.24
2017-11-14T09:26:23.482Z,7.1
2017-11-14T09:27:23.492Z,7.25
2017-11-14T09:28:23.511Z,7.31
2017-11-14T09:29:23.200Z,7.2
2017-11-14T09:30:23.215Z,7.17
2017-11-14T09:31:23.563Z,7.14
2017-11-14T09:32:23.572Z,7.25
2017-11-14T09:33:23.604Z,7.29
2017-11-14T09:34:23.611Z,7.2
2017-11-14T09:35:23.633Z,7.39
2017-11-14T09:36:23.850Z,7.35
2017-11-14T09:37:23.688Z,7.42
2017-11-14T09:38:23.667Z,7.42
2017-11-14T09:39:23.368Z,7.39
2017-11-14T09:40:23.381Z,7.32
2017-11-14T09:41:23.722Z,7.36
2017-11-14T09:42:23.747Z,7.45
2017-11-14T09:43:23.748Z,7.54
2017-11-14T09:44:23.445Z,7.35
2017-11-14T09:45:23.797Z,7.29
2017-11-14T09:46:23.807Z,7.36
2017-11-14T09:47:23.828Z,7.48
2017-11-14T09:48:23.512Z,7.7
2017-11-14T09:49:23.853Z,7.75
2017-11-14T09:50:23.871Z,8.01
2017-11-14T09:51:23.895Z,8.12
2017-11-14T09:52:23.587Z,8.27
2017-11-14T09:53:23.594Z,8.36
2017-11-14T09:54:23.612Z,8.61
2017-11-14T09:55:23.961Z,8.69
2017-11-14T09:56:23.650Z,8.94
2017-11-14T09:57:23.992Z,9.02
2017-11-14T09:58:23.691Z,9.29
2017-11-14T09:59:24.080Z,9.34
2017-11-14T10:00:23.723Z,9.41
2017-11-14T10:01:24.077Z,9.54
2017-11-14T10:02:23.766Z,9.51
2017-11-14T10:03:23.787Z,9.84
2017-11-14T10:04:24.130Z,9.94
2017-11-14T10:05:23.831Z,10.07
2017-11-14T10:06:23.849Z,10.16
2017-11-14T10:07:24.209Z,10.33
2017-11-14T10:08:23.890Z,10.63
2017-11-14T10:09:23.588Z,10.74
2017-11-14T10:10:23.938Z,10.74
2017-11-14T10:11:24.278Z,10.92
2017-11-14T10:12:23.999Z,11.15
2017-11-14T10:13:24.326Z,11.4
2017-11-14T10:14:24.409Z,11.66
2017-11-14T10:15:24.370Z,11.86
2017-11-14T10:16:24.073Z,11.91
2017-11-14T10:17:24.423Z,12.28
2017-11-14T10:18:24.111Z,12.45
2017-11-14T10:19:24.466Z,12.75
2017-11-14T10:20:24.490Z,12.9
2017-11-14T10:21:24.515Z,13.03
2017-11-14T10:22:24.576Z,13.05
2017-11-14T10:23:24.567Z,13.15
2017-11-14T10:24:24.591Z,13.38
2017-11-14T10:25:24.300Z,13.5
2017-11-14T10:26:24.312Z,13.56
2017-11-14T10:27:24.335Z,13.53
2017-11-14T10:28:24.683Z,13.62
2017-11-14T10:29:24.760Z,13.56
2017-11-14T10:30:24.412Z,13.38
2017-11-14T10:31:24.763Z,13.47
2017-11-14T10:32:24.468Z,13.52
2017-11-14T10:33:24.811Z,13.62
2017-11-14T10:34:24.832Z,13.7
2017-11-14T10:35:24.869Z,13.62
2017-11-14T10:36:24.886Z,13.77
2017-11-14T10:37:24.586Z,13.86
2017-11-14T10:38:24.286Z,14.36
2017-11-14T10:39:24.964Z,14.63
2017-11-14T10:40:24.665Z,14.96
2017-11-14T10:41:24.707Z,14.86
2017-11-14T10:42:24.715Z,14.96
2017-11-14T10:43:24.755Z,14.72
2017-11-14T10:44:25.146Z,14.33
2017-11-14T10:45:25.127Z,14.07
2017-11-14T10:46:25.144Z,14.22
2017-11-14T10:47:25.169Z,14.04
2017-11-14T10:48:24.871Z,14.23
2017-11-14T10:49:24.893Z,14.29
2017-11-14T10:50:25.242Z,14.54
2017-11-14T10:51:24.943Z,14.62
2017-11-14T10:52:24.987Z,14.43
2017-11-14T10:53:25.321Z,14.37
2017-11-14T10:54:25.345Z,14.28
2017-11-14T10:55:25.045Z,14.28
2017-11-14T10:56:24.744Z,14.18
2017-11-14T10:57:25.417Z,14.3
2017-11-14T10:58:25.440Z,14.29
2017-11-14T10:59:25.160Z,14.23
2017-11-14T11:00:25.166Z,14.12
2017-11-14T11:01:25.569Z,14
2017-11-14T11:02:25.223Z,13.96
2017-11-14T11:03:25.564Z,14.05
2017-11-14T11:04:25.262Z,14.18
2017-11-14T11:05:25.609Z,14.3
2017-11-14T11:06:25.662Z,14.29
2017-11-14T11:07:25.662Z,14.55
2017-11-14T11:08:25.689Z,14.77
2017-11-14T11:09:25.711Z,15.07
2017-11-14T11:10:25.416Z,14.96
2017-11-14T11:11:25.460Z,15.42
2017-11-14T11:12:25.786Z,15.61
2017-11-14T11:13:25.807Z,15.67
2017-11-14T11:14:25.840Z,15.8
2017-11-14T11:15:25.540Z,16.1
2017-11-14T11:16:25.890Z,16.47
2017-11-14T11:17:25.917Z,16.65
2017-11-14T11:18:25.949Z,16.9
2017-11-14T11:19:25.973Z,17.09
2017-11-14T11:20:26.062Z,17.05
2017-11-14T11:21:26.028Z,17.27
2017-11-14T11:22:25.745Z,17.31
2017-11-14T11:23:25.762Z,17.29
2017-11-14T11:24:26.120Z,17.52
2017-11-14T11:25:26.138Z,17.56
2017-11-14T11:26:26.183Z,17.63
2017-11-14T11:27:25.877Z,17.85
2017-11-14T11:28:26.223Z,18.2
2017-11-14T11:29:26.258Z,18.07
2017-11-14T11:30:26.287Z,18.19
2017-11-14T11:31:26.323Z,18.43
2017-11-14T11:32:26.345Z,18.52
2017-11-14T11:33:25.723Z,18.77
2017-11-14T11:34:26.100Z,18.63
2017-11-14T11:35:26.437Z,18.45
2017-11-14T11:36:26.456Z,18.53
2017-11-14T11:37:26.168Z,18.53
2017-11-14T11:38:26.512Z,18.58
2017-11-14T11:39:26.555Z,18.92
2017-11-14T11:40:26.573Z,19.14
2017-11-14T11:41:26.603Z,19.16
2017-11-14T11:42:26.650Z,19.07
2017-11-14T11:43:26.660Z,19.15
2017-11-14T11:44:26.369Z,19.08
2017-11-14T11:45:26.722Z,19.18
2017-11-14T11:46:26.755Z,19.7
2017-11-14T11:47:26.806Z,20
2017-11-14T11:48:26.549Z,19.84
2017-11-14T11:49:26.847Z,20
2017-11-14T11:50:26.870Z,19.85
2017-11-14T11:51:26.611Z,19.91
2017-11-14T11:52:26.936Z,20.22
2017-11-14T11:53:26.969Z,20.32
2017-11-14T11:54:27.048Z,20
2017-11-14T11:55:27.027Z,20.39
2017-11-14T11:56:26.743Z,20.55
2017-11-14T11:57:26.436Z,20.44
2017-11-14T11:58:26.798Z,20.56
2017-11-14T11:59:27.152Z,20.66
2017-11-14T12:00:26.862Z,20.87
2017-11-14T12:01:26.886Z,20.72
2017-11-14T12:02:27.239Z,20.8
2017-11-14T12:03:27.271Z,20.56
2017-11-14T12:04:26.983Z,20.65
2017-11-14T12:05:27.008Z,20.56
2017-11-14T12:06:27.036Z,20.78
2017-11-14T12:07:27.065Z,20.99
2017-11-14T12:08:27.106Z,20.87
2017-11-14T12:09:27.499Z,20.77
2017-11-14T12:10:27.492Z,20.65
2017-11-14T12:11:27.514Z,20.78
2017-11-14T12:12:27.542Z,21
2017-11-14T12:13:27.570Z,21.2
2017-11-14T12:14:27.290Z,21.29
2017-11-14T12:15:27.312Z,21.66
2017-11-14T12:16:27.339Z,21.89
2017-11-14T12:17:27.733Z,21.95
2017-11-14T12:18:27.744Z,21.99
2017-11-14T12:19:27.110Z,22.1
2017-11-14T12:20:27.465Z,22.23
2017-11-14T12:21:27.817Z,22.5
2017-11-14T12:22:27.541Z,22.63
2017-11-14T12:23:27.881Z,22.44
2017-11-14T12:24:27.639Z,22.7
2017-11-14T12:25:27.952Z,22.5
2017-11-14T12:26:27.973Z,22.41
2017-11-14T12:27:28.010Z,22.6
2017-11-14T12:28:27.708Z,22.83
2017-11-14T12:29:28.067Z,22.94
2017-11-14T12:30:28.100Z,22.88
2017-11-14T12:31:27.804Z,22.66
2017-11-14T12:32:28.161Z,22.78
2017-11-14T12:33:28.199Z,22.87
2017-11-14T12:34:27.896Z,22.87
2017-11-14T12:35:28.251Z,23.05
2017-11-14T12:36:27.959Z,22.63
2017-11-14T12:37:28.317Z,22.28
2017-11-14T12:38:28.353Z,22.45
2017-11-14T12:39:28.382Z,22.45
2017-11-14T12:40:28.409Z,22.75
2017-11-14T12:41:28.130Z,22.62
2017-11-14T12:42:27.825Z,22.94
2017-11-14T12:43:28.189Z,23.09
2017-11-14T12:44:28.537Z,22.9
2017-11-14T12:45:28.263Z,22.85
2017-11-14T12:46:28.273Z,22.84
2017-11-14T12:47:28.307Z,22.5
2017-11-14T12:48:28.667Z,21.96
2017-11-14T12:49:28.694Z,21.95
2017-11-14T12:50:28.395Z,21.93
2017-11-14T12:51:28.422Z,21.69
2017-11-14T12:52:28.454Z,21.61
2017-11-14T12:53:28.484Z,21.82
2017-11-14T12:54:28.846Z,21.99
2017-11-14T12:55:28.870Z,21.8
2017-11-14T12:56:28.574Z,21.4
2017-11-14T12:57:28.539Z,20.9
2017-11-14T12:58:28.617Z,20.9
2017-11-14T12:59:28.855Z,21.07
2017-11-14T13:00:28.880Z,20.84
2017-11-14T13:01:28.916Z,20.5
2017-11-14T13:02:28.938Z,19.95
2017-11-14T13:03:28.712Z,19.36
2017-11-14T13:04:28.481Z,19.07
2017-11-14T13:05:28.766Z,18.88
2017-11-14T13:06:28.536Z,18.53
2017-11-14T13:07:28.819Z,18.26
2017-11-14T13:08:28.849Z,17.95
2017-11-14T13:09:29.147Z,17.57
2017-11-14T13:10:29.160Z,17.68
2017-11-14T13:11:29.183Z,17.57
2017-11-14T13:12:28.958Z,17.71
2017-11-14T13:13:29.241Z,17.71
2017-11-14T13:14:29.008Z,17.95
2017-11-14T13:15:29.292Z,18.18